BCS58K EHAM-EDDP
Flight info
| Callsign | BCS58K |
|---|---|
| Flight time | 0h 47m |
| Altitude | 35000 |
| Route | ARNEM L620 HMM DCT NORTA DCT ADMOS T959 KOJEC KOJEC1R |
| Aircraft | B77L/H-SDE1E2E3FGHIJ2J3J4J5M1RWXY/LB1D1 |
Departure
| Time | 2026-05-06 21:37 |
|---|---|
| Airport | Amsterdam Airport Schiphol (EHAM) |
Arrival
| Time | 2026-05-06 22:24 |
|---|---|
| Airport | Leipzig/Halle Airport (EDDP) |
| Time | Latitude | Longitude | Altitude | Speed | Heading |
|---|---|---|---|---|---|
| 2026-05-06 21:03 | 52.29243 | 4.75495 | 4 ft | 0 kts | 150° |
| 2026-05-06 21:04 | 52.29242 | 4.75495 | 4 ft | 0 kts | 148° |
| 2026-05-06 21:07 | 52.29242 | 4.75494 | 4 ft | 0 kts | 148° |
| 2026-05-06 21:18 | 52.29243 | 4.75494 | -60 ft | 0 kts | 148° |
| 2026-05-06 21:25 | 52.29243 | 4.75493 | 3 ft | 0 kts | 148° |
| 2026-05-06 21:28 | 52.29262 | 4.75474 | 5 ft | 4 kts | 145° |
| 2026-05-06 21:28 | 52.29283 | 4.75447 | 5 ft | 4 kts | 139° |
| 2026-05-06 21:28 | 52.29302 | 4.75416 | 6 ft | 4 kts | 120° |
| 2026-05-06 21:29 | 52.29307 | 4.75381 | 3 ft | 3 kts | 62° |
| 2026-05-06 21:29 | 52.29306 | 4.75377 | 3 ft | 0 kts | 58° |
| 2026-05-06 21:31 | 52.29313 | 4.75396 | 4 ft | 10 kts | 58° |
| 2026-05-06 21:31 | 52.29354 | 4.75503 | 3 ft | 10 kts | 57° |
| 2026-05-06 21:32 | 52.29413 | 4.75565 | 3 ft | 13 kts | 356° |
| 2026-05-06 21:32 | 52.29572 | 4.75412 | 2 ft | 14 kts | 327° |
| 2026-05-06 21:32 | 52.29653 | 4.75331 | 4 ft | 14 kts | 328° |
| 2026-05-06 21:33 | 52.29741 | 4.75279 | 4 ft | 14 kts | 355° |
| 2026-05-06 21:33 | 52.29827 | 4.75221 | 3 ft | 14 kts | 313° |
| 2026-05-06 21:33 | 52.29891 | 4.75103 | 3 ft | 14 kts | 311° |
| 2026-05-06 21:33 | 52.29955 | 4.74985 | 3 ft | 14 kts | 311° |
| 2026-05-06 21:34 | 52.30019 | 4.74867 | 4 ft | 14 kts | 311° |
| 2026-05-06 21:34 | 52.30095 | 4.74726 | 8 ft | 23 kts | 311° |
| 2026-05-06 21:34 | 52.30200 | 4.74532 | 15 ft | 22 kts | 311° |
| 2026-05-06 21:34 | 52.30290 | 4.74366 | 13 ft | 20 kts | 311° |
| 2026-05-06 21:35 | 52.30389 | 4.74178 | 4 ft | 20 kts | 311° |
| 2026-05-06 21:35 | 52.30409 | 4.73984 | 4 ft | 17 kts | 259° |
| 2026-05-06 21:35 | 52.30408 | 4.73835 | 2 ft | 0 kts | 284° |
| 2026-05-06 21:35 | 52.30426 | 4.73792 | 2 ft | 9 kts | 314° |
| 2026-05-06 21:36 | 52.30483 | 4.73763 | 2 ft | 6 kts | 0° |
| 2026-05-06 21:36 | 52.30579 | 4.73773 | 1 ft | 32 kts | 4° |
| 2026-05-06 21:36 | 52.31056 | 4.73817 | 4 ft | 106 kts | 4° |
| 2026-05-06 21:36 | 52.32006 | 4.73910 | 26 ft | 164 kts | 2° |
| 2026-05-06 21:37 | 52.33191 | 4.73988 | 576 ft | 175 kts | 5° |
| 2026-05-06 21:37 | 52.34398 | 4.74285 | 1300 ft | 176 kts | 16° |
| 2026-05-06 21:37 | 52.35567 | 4.74874 | 2022 ft | 176 kts | 21° |
| 2026-05-06 21:37 | 52.36702 | 4.75611 | 2748 ft | 175 kts | 26° |
| 2026-05-06 21:38 | 52.37768 | 4.76564 | 3364 ft | 179 kts | 37° |
| 2026-05-06 21:38 | 52.38722 | 4.78089 | 3588 ft | 204 kts | 47° |
| 2026-05-06 21:38 | 52.39739 | 4.79923 | 3874 ft | 228 kts | 46° |
| 2026-05-06 21:38 | 52.40756 | 4.81926 | 4566 ft | 233 kts | 60° |
| 2026-05-06 21:39 | 52.41025 | 4.84572 | 5156 ft | 249 kts | 98° |
| 2026-05-06 21:39 | 52.40343 | 4.87253 | 5742 ft | 262 kts | 116° |
| 2026-05-06 21:39 | 52.39498 | 4.89902 | 6439 ft | 270 kts | 114° |
| 2026-05-06 21:39 | 52.38634 | 4.92667 | 7227 ft | 276 kts | 114° |
| 2026-05-06 21:40 | 52.37756 | 4.95475 | 8034 ft | 280 kts | 115° |
| 2026-05-06 21:40 | 52.36863 | 4.98340 | 8856 ft | 284 kts | 115° |
| 2026-05-06 21:40 | 52.35958 | 5.01249 | 9669 ft | 289 kts | 115° |
| 2026-05-06 21:40 | 52.35035 | 5.04212 | 10320 ft | 298 kts | 116° |
| 2026-05-06 21:41 | 52.34058 | 5.07348 | 10619 ft | 324 kts | 116° |
| 2026-05-06 21:41 | 52.33050 | 5.10822 | 10829 ft | 353 kts | 112° |
| 2026-05-06 21:41 | 52.32099 | 5.14683 | 11138 ft | 377 kts | 110° |
| 2026-05-06 21:41 | 52.31154 | 5.18747 | 11932 ft | 385 kts | 110° |
| 2026-05-06 21:42 | 52.30214 | 5.22804 | 12955 ft | 388 kts | 110° |
| 2026-05-06 21:42 | 52.29241 | 5.26964 | 13798 ft | 397 kts | 111° |
| 2026-05-06 21:42 | 52.28242 | 5.31189 | 14675 ft | 401 kts | 111° |
| 2026-05-06 21:42 | 52.27228 | 5.35446 | 15606 ft | 404 kts | 111° |
| 2026-05-06 21:43 | 52.26199 | 5.39743 | 16480 ft | 408 kts | 111° |
| 2026-05-06 21:43 | 52.25159 | 5.44076 | 17342 ft | 412 kts | 112° |
| 2026-05-06 21:43 | 52.24107 | 5.48450 | 18235 ft | 416 kts | 113° |
| 2026-05-06 21:43 | 52.23044 | 5.52856 | 18938 ft | 420 kts | 113° |
| 2026-05-06 21:44 | 52.21963 | 5.57313 | 19651 ft | 425 kts | 113° |
| 2026-05-06 21:44 | 52.20881 | 5.61761 | 20310 ft | 430 kts | 112° |
| 2026-05-06 21:44 | 52.19768 | 5.66328 | 20964 ft | 436 kts | 114° |
| 2026-05-06 21:44 | 52.18646 | 5.70930 | 21650 ft | 440 kts | 113° |
| 2026-05-06 21:45 | 52.17509 | 5.75581 | 22381 ft | 443 kts | 114° |
| 2026-05-06 21:45 | 52.16360 | 5.80273 | 23005 ft | 449 kts | 114° |
| 2026-05-06 21:45 | 52.15194 | 5.85025 | 23583 ft | 455 kts | 113° |
| 2026-05-06 21:45 | 52.14021 | 5.89800 | 24264 ft | 455 kts | 114° |
| 2026-05-06 21:46 | 52.12846 | 5.94573 | 25002 ft | 454 kts | 114° |
| 2026-05-06 21:46 | 52.11669 | 5.99345 | 25715 ft | 454 kts | 114° |
| 2026-05-06 21:46 | 52.10510 | 6.04060 | 26333 ft | 457 kts | 112° |
| 2026-05-06 21:46 | 52.09513 | 6.09003 | 26864 ft | 463 kts | 106° |
| 2026-05-06 21:47 | 52.08843 | 6.14129 | 27458 ft | 466 kts | 101° |
| 2026-05-06 21:47 | 52.08339 | 6.19356 | 28084 ft | 467 kts | 101° |
| 2026-05-06 21:47 | 52.07830 | 6.24596 | 28544 ft | 472 kts | 100° |
| 2026-05-06 21:47 | 52.07306 | 6.29867 | 29075 ft | 473 kts | 101° |
| 2026-05-06 21:48 | 52.06769 | 6.35138 | 29597 ft | 475 kts | 101° |
| 2026-05-06 21:48 | 52.06218 | 6.40446 | 30072 ft | 476 kts | 100° |
| 2026-05-06 21:48 | 52.05672 | 6.45654 | 30643 ft | 473 kts | 101° |
| 2026-05-06 21:48 | 52.05115 | 6.50933 | 31004 ft | 476 kts | 100° |
| 2026-05-06 21:49 | 52.04553 | 6.56244 | 31347 ft | 478 kts | 101° |
| 2026-05-06 21:49 | 52.03987 | 6.61573 | 31819 ft | 478 kts | 100° |
| 2026-05-06 21:49 | 52.03420 | 6.66894 | 32196 ft | 479 kts | 101° |
| 2026-05-06 21:49 | 52.02849 | 6.72229 | 32625 ft | 480 kts | 101° |
| 2026-05-06 21:50 | 52.02243 | 6.77557 | 33102 ft | 480 kts | 104° |
| 2026-05-06 21:50 | 52.01435 | 6.82798 | 33771 ft | 477 kts | 106° |
| 2026-05-06 21:50 | 52.00590 | 6.87961 | 34111 ft | 480 kts | 107° |
| 2026-05-06 21:50 | 51.99736 | 6.93195 | 34448 ft | 480 kts | 106° |
| 2026-05-06 21:51 | 51.98891 | 6.98442 | 34746 ft | 481 kts | 106° |
| 2026-05-06 21:51 | 51.98044 | 7.03727 | 34801 ft | 487 kts | 106° |
| 2026-05-06 21:51 | 51.96302 | 7.14339 | 34835 ft | 485 kts | 108° |
| 2026-05-06 21:52 | 51.94377 | 7.24726 | 34837 ft | 479 kts | 109° |
| 2026-05-06 21:52 | 51.92421 | 7.35037 | 34824 ft | 479 kts | 109° |
| 2026-05-06 21:53 | 51.90498 | 7.45300 | 34840 ft | 479 kts | 109° |
| 2026-05-06 21:53 | 51.88563 | 7.55639 | 34833 ft | 481 kts | 109° |
| 2026-05-06 21:54 | 51.86665 | 7.66032 | 34835 ft | 484 kts | 105° |
| 2026-05-06 21:54 | 51.85737 | 7.76851 | 34832 ft | 488 kts | 94° |
| 2026-05-06 21:55 | 51.85828 | 7.87790 | 34810 ft | 490 kts | 90° |
| 2026-05-06 21:55 | 51.86021 | 7.98824 | 34829 ft | 491 kts | 90° |
| 2026-05-06 21:56 | 51.86176 | 8.09878 | 34815 ft | 492 kts | 91° |
| 2026-05-06 21:56 | 51.86296 | 8.20948 | 34808 ft | 492 kts | 91° |
| 2026-05-06 21:57 | 51.86399 | 8.32023 | 34806 ft | 492 kts | 91° |
| 2026-05-06 21:57 | 51.86491 | 8.43023 | 34809 ft | 493 kts | 91° |
| 2026-05-06 21:58 | 51.86575 | 8.54118 | 34808 ft | 493 kts | 91° |
| 2026-05-06 21:58 | 51.86649 | 8.65216 | 34801 ft | 493 kts | 91° |
| 2026-05-06 21:59 | 51.86713 | 8.76314 | 34802 ft | 493 kts | 91° |
| 2026-05-06 21:59 | 51.86766 | 8.87354 | 34804 ft | 495 kts | 92° |
| 2026-05-06 22:00 | 51.86808 | 8.98500 | 34804 ft | 497 kts | 92° |
| 2026-05-06 22:00 | 51.86825 | 9.04116 | 34297 ft | 505 kts | 92° |
| 2026-05-06 22:00 | 51.86838 | 9.09836 | 33505 ft | 508 kts | 92° |
| 2026-05-06 22:01 | 51.86850 | 9.15547 | 32526 ft | 507 kts | 91° |
| 2026-05-06 22:01 | 51.86861 | 9.21226 | 31569 ft | 505 kts | 91° |
| 2026-05-06 22:01 | 51.86869 | 9.26886 | 30737 ft | 501 kts | 91° |
| 2026-05-06 22:01 | 51.86874 | 9.32488 | 30098 ft | 494 kts | 91° |
| 2026-05-06 22:02 | 51.86877 | 9.37919 | 29428 ft | 486 kts | 91° |
| 2026-05-06 22:02 | 51.86876 | 9.43357 | 28778 ft | 479 kts | 90° |
| 2026-05-06 22:02 | 51.86873 | 9.48705 | 28195 ft | 472 kts | 91° |
| 2026-05-06 22:02 | 51.86867 | 9.53976 | 27618 ft | 465 kts | 91° |
| 2026-05-06 22:03 | 51.86859 | 9.59174 | 27052 ft | 460 kts | 91° |
| 2026-05-06 22:03 | 51.86848 | 9.64313 | 26472 ft | 455 kts | 91° |
| 2026-05-06 22:03 | 51.86838 | 9.69402 | 25910 ft | 450 kts | 91° |
| 2026-05-06 22:03 | 51.86823 | 9.74434 | 25366 ft | 445 kts | 91° |
| 2026-05-06 22:04 | 51.86763 | 9.79358 | 24811 ft | 441 kts | 96° |
| 2026-05-06 22:04 | 51.86422 | 9.84253 | 24289 ft | 436 kts | 103° |
| 2026-05-06 22:04 | 51.85781 | 9.89020 | 23768 ft | 432 kts | 105° |
| 2026-05-06 22:04 | 51.85110 | 9.93734 | 23219 ft | 429 kts | 105° |
| 2026-05-06 22:05 | 51.84447 | 9.98414 | 22615 ft | 426 kts | 105° |
| 2026-05-06 22:05 | 51.83794 | 10.03072 | 22064 ft | 423 kts | 105° |
| 2026-05-06 22:05 | 51.83150 | 10.07696 | 21546 ft | 419 kts | 105° |
| 2026-05-06 22:05 | 51.82515 | 10.12272 | 21024 ft | 416 kts | 105° |
| 2026-05-06 22:06 | 51.81884 | 10.16825 | 20518 ft | 413 kts | 105° |
| 2026-05-06 22:06 | 51.81264 | 10.21280 | 20011 ft | 411 kts | 105° |
| 2026-05-06 22:06 | 51.80631 | 10.25822 | 19501 ft | 408 kts | 106° |
| 2026-05-06 22:06 | 51.80014 | 10.30236 | 19006 ft | 407 kts | 106° |
| 2026-05-06 22:07 | 51.79392 | 10.34680 | 18522 ft | 405 kts | 106° |
| 2026-05-06 22:07 | 51.78769 | 10.39112 | 18013 ft | 405 kts | 106° |
| 2026-05-06 22:07 | 51.78145 | 10.43533 | 17446 ft | 404 kts | 106° |
| 2026-05-06 22:07 | 51.77521 | 10.47947 | 16915 ft | 402 kts | 106° |
| 2026-05-06 22:08 | 51.76899 | 10.52333 | 16402 ft | 400 kts | 106° |
| 2026-05-06 22:08 | 51.76278 | 10.56703 | 15901 ft | 398 kts | 106° |
| 2026-05-06 22:08 | 51.75665 | 10.60996 | 15408 ft | 397 kts | 106° |
| 2026-05-06 22:08 | 51.75047 | 10.65319 | 14911 ft | 396 kts | 106° |
| 2026-05-06 22:09 | 51.74426 | 10.69648 | 14414 ft | 395 kts | 106° |
| 2026-05-06 22:09 | 51.73808 | 10.73960 | 13945 ft | 393 kts | 105° |
| 2026-05-06 22:09 | 51.73190 | 10.78246 | 13408 ft | 392 kts | 105° |
| 2026-05-06 22:09 | 51.72563 | 10.82528 | 12848 ft | 391 kts | 107° |
| 2026-05-06 22:10 | 51.71751 | 10.86688 | 12348 ft | 387 kts | 114° |
| 2026-05-06 22:10 | 51.70757 | 10.90707 | 11825 ft | 385 kts | 115° |
| 2026-05-06 22:10 | 51.69778 | 10.94648 | 11357 ft | 383 kts | 114° |
| 2026-05-06 22:10 | 51.68784 | 10.98675 | 10860 ft | 382 kts | 114° |
| 2026-05-06 22:11 | 51.67830 | 11.02572 | 10646 ft | 373 kts | 114° |
| 2026-05-06 22:11 | 51.66895 | 11.06401 | 10483 ft | 363 kts | 114° |
| 2026-05-06 22:11 | 51.65983 | 11.10140 | 10327 ft | 354 kts | 114° |
| 2026-05-06 22:11 | 51.65093 | 11.13784 | 10182 ft | 345 kts | 114° |
| 2026-05-06 22:12 | 51.64226 | 11.17335 | 10020 ft | 337 kts | 114° |
| 2026-05-06 22:12 | 51.63377 | 11.20801 | 9894 ft | 329 kts | 114° |
| 2026-05-06 22:12 | 51.62546 | 11.24187 | 9719 ft | 322 kts | 115° |
| 2026-05-06 22:12 | 51.61663 | 11.27428 | 9516 ft | 310 kts | 123° |
| 2026-05-06 22:13 | 51.60503 | 11.30248 | 9287 ft | 302 kts | 130° |
| 2026-05-06 22:13 | 51.59266 | 11.32890 | 9160 ft | 290 kts | 131° |
| 2026-05-06 22:13 | 51.58046 | 11.35477 | 8551 ft | 296 kts | 130° |
| 2026-05-06 22:13 | 51.56813 | 11.38134 | 8140 ft | 294 kts | 129° |
| 2026-05-06 22:14 | 51.55622 | 11.40751 | 7825 ft | 286 kts | 126° |
| 2026-05-06 22:14 | 51.54467 | 11.43326 | 7489 ft | 286 kts | 128° |
| 2026-05-06 22:14 | 51.53324 | 11.45877 | 7072 ft | 274 kts | 128° |
| 2026-05-06 22:14 | 51.52249 | 11.48284 | 6849 ft | 254 kts | 128° |
| 2026-05-06 22:15 | 51.51257 | 11.50471 | 6601 ft | 232 kts | 133° |
| 2026-05-06 22:15 | 51.50141 | 11.52241 | 6138 ft | 220 kts | 143° |
| 2026-05-06 22:15 | 51.48966 | 11.53811 | 5555 ft | 223 kts | 143° |
| 2026-05-06 22:15 | 51.47775 | 11.55390 | 5088 ft | 227 kts | 143° |
| 2026-05-06 22:16 | 51.46560 | 11.57020 | 4681 ft | 227 kts | 142° |
| 2026-05-06 22:16 | 51.45353 | 11.58659 | 4320 ft | 226 kts | 141° |
| 2026-05-06 22:16 | 51.44159 | 11.60294 | 3969 ft | 225 kts | 142° |
| 2026-05-06 22:16 | 51.42974 | 11.61921 | 3656 ft | 221 kts | 140° |
| 2026-05-06 22:17 | 51.41854 | 11.63464 | 3780 ft | 211 kts | 140° |
| 2026-05-06 22:17 | 51.40693 | 11.65060 | 3883 ft | 236 kts | 141° |
| 2026-05-06 22:17 | 51.39367 | 11.66954 | 3688 ft | 271 kts | 133° |
| 2026-05-06 22:17 | 51.38462 | 11.69741 | 2778 ft | 301 kts | 98° |
| 2026-05-06 22:18 | 51.38405 | 11.72825 | 3283 ft | 261 kts | 89° |
| 2026-05-06 22:18 | 51.38480 | 11.75697 | 3316 ft | 250 kts | 86° |
| 2026-05-06 22:18 | 51.38700 | 11.78437 | 3601 ft | 253 kts | 78° |
| 2026-05-06 22:18 | 51.39110 | 11.81272 | 4109 ft | 269 kts | 75° |
| 2026-05-06 22:19 | 51.39515 | 11.84041 | 4374 ft | 245 kts | 77° |
| 2026-05-06 22:19 | 51.39827 | 11.86713 | 3463 ft | 248 kts | 83° |
| 2026-05-06 22:19 | 51.39956 | 11.89455 | 2685 ft | 237 kts | 87° |
| 2026-05-06 22:19 | 51.40039 | 11.91985 | 2154 ft | 217 kts | 86° |
| 2026-05-06 22:20 | 51.40107 | 11.94265 | 1980 ft | 197 kts | 86° |
| 2026-05-06 22:20 | 51.40175 | 11.96379 | 2080 ft | 183 kts | 88° |
| 2026-05-06 22:20 | 51.40206 | 11.98347 | 2224 ft | 177 kts | 87° |
| 2026-05-06 22:20 | 51.40235 | 12.00311 | 2237 ft | 177 kts | 88° |
| 2026-05-06 22:21 | 51.40294 | 12.02274 | 2275 ft | 174 kts | 85° |
| 2026-05-06 22:21 | 51.40376 | 12.04090 | 2263 ft | 154 kts | 84° |
| 2026-05-06 22:21 | 51.40465 | 12.05741 | 2056 ft | 144 kts | 84° |
| 2026-05-06 22:21 | 51.40539 | 12.07302 | 1779 ft | 137 kts | 85° |
| 2026-05-06 22:22 | 51.40613 | 12.08834 | 1594 ft | 142 kts | 84° |
| 2026-05-06 22:22 | 51.40690 | 12.10403 | 1554 ft | 142 kts | 84° |
| 2026-05-06 22:22 | 51.40754 | 12.11990 | 1456 ft | 145 kts | 84° |
| 2026-05-06 22:22 | 51.40837 | 12.13628 | 1294 ft | 147 kts | 83° |
| 2026-05-06 22:23 | 51.40922 | 12.15238 | 1083 ft | 143 kts | 84° |
| 2026-05-06 22:23 | 51.40979 | 12.16797 | 900 ft | 142 kts | 83° |
| 2026-05-06 22:23 | 51.41055 | 12.18382 | 713 ft | 143 kts | 82° |
| 2026-05-06 22:23 | 51.41135 | 12.19987 | 544 ft | 145 kts | 83° |
| 2026-05-06 22:24 | 51.41209 | 12.21543 | 463 ft | 131 kts | 83° |
| 2026-05-06 22:24 | 51.41273 | 12.22859 | 470 ft | 106 kts | 86° |
| 2026-05-06 22:24 | 51.41312 | 12.23639 | 477 ft | 46 kts | 85° |
| 2026-05-06 22:24 | 51.41293 | 12.23984 | 474 ft | 27 kts | 108° |
| 2026-05-06 22:25 | 51.41252 | 12.24136 | 471 ft | 12 kts | 116° |
| 2026-05-06 22:25 | 51.41214 | 12.24261 | 474 ft | 13 kts | 116° |
| 2026-05-06 22:25 | 51.41184 | 12.24360 | 472 ft | 8 kts | 112° |
| 2026-05-06 22:25 | 51.41173 | 12.24443 | 472 ft | 8 kts | 88° |
| 2026-05-06 22:26 | 51.41175 | 12.24528 | 472 ft | 8 kts | 103° |
| 2026-05-06 22:26 | 51.41130 | 12.24579 | 470 ft | 9 kts | 162° |
| 2026-05-06 22:26 | 51.41072 | 12.24636 | 468 ft | 11 kts | 153° |
| 2026-05-06 22:26 | 51.41000 | 12.24657 | 471 ft | 11 kts | 176° |
| 2026-05-06 22:27 | 51.40930 | 12.24664 | 468 ft | 11 kts | 177° |
| 2026-05-06 22:27 | 51.40882 | 12.24675 | 470 ft | 6 kts | 146° |
| 2026-05-06 22:27 | 51.40878 | 12.24743 | 470 ft | 6 kts | 85° |
| 2026-05-06 22:27 | 51.40881 | 12.24800 | 470 ft | 2 kts | 86° |
| 2026-05-06 22:28 | 51.40882 | 12.24818 | 470 ft | 2 kts | 85° |
| 2026-05-06 22:28 | 51.40882 | 12.24835 | 470 ft | 0 kts | 85° |
| 2026-05-06 22:34 | 51.40882 | 12.24834 | 470 ft | 0 kts | 85° |